createdAt,value
2023-09-26T00:01:15.262Z,21.75
2023-09-26T00:04:17.956Z,21.76
2023-09-26T00:07:20.270Z,21.80
2023-09-26T00:10:22.777Z,21.75
2023-09-26T00:13:25.147Z,21.73
2023-09-26T00:16:27.471Z,21.77
2023-09-26T00:19:29.765Z,21.79
2023-09-26T00:22:32.031Z,21.64
2023-09-26T00:25:34.328Z,21.65
2023-09-26T00:28:36.541Z,21.64
2023-09-26T00:31:39.221Z,21.70
2023-09-26T00:34:41.562Z,21.75
2023-09-26T00:37:48.643Z,21.67
2023-09-26T00:40:51.242Z,21.61
2023-09-26T00:43:53.491Z,21.71
2023-09-26T00:46:56.475Z,21.74
2023-09-26T00:49:58.794Z,21.72
2023-09-26T00:53:01.069Z,21.71
2023-09-26T00:56:03.641Z,21.67
2023-09-26T00:59:07.013Z,21.69
2023-09-26T01:02:11.812Z,21.60
2023-09-26T01:05:14.292Z,21.62
2023-09-26T01:08:25.312Z,21.45
2023-09-26T01:11:27.627Z,21.53
2023-09-26T01:14:29.858Z,21.48
2023-09-26T01:17:33.320Z,21.50
2023-09-26T01:20:38.656Z,21.42
2023-09-26T01:23:41.561Z,21.45
2023-09-26T01:26:44.107Z,21.45
2023-09-26T01:29:49.361Z,21.47
2023-09-26T01:32:52.345Z,21.49
2023-09-26T01:35:54.786Z,21.50
2023-09-26T01:38:57.227Z,21.30
2023-09-26T01:41:59.646Z,21.35
2023-09-26T01:45:01.995Z,21.30
2023-09-26T01:48:06.808Z,21.44
2023-09-26T01:51:09.144Z,21.48
2023-09-26T01:54:11.453Z,21.52
2023-09-26T01:57:13.743Z,21.50
2023-09-26T02:00:16.838Z,21.43
2023-09-26T02:03:18.998Z,21.36
2023-09-26T02:06:21.305Z,21.39
2023-09-26T02:09:25.511Z,21.28
2023-09-26T02:12:27.896Z,21.30
2023-09-26T02:15:30.165Z,21.36
2023-09-26T02:18:33.364Z,21.34
2023-09-26T02:21:35.582Z,21.29
2023-09-26T02:24:38.649Z,21.30
2023-09-26T02:27:42.858Z,21.30
2023-09-26T02:30:45.393Z,21.24
2023-09-26T02:33:57.842Z,21.36
2023-09-26T02:37:00.539Z,21.36
2023-09-26T02:40:06.604Z,21.34
2023-09-26T02:43:09.100Z,21.41
2023-09-26T02:46:42.691Z,21.37
2023-09-26T02:49:45.154Z,21.24
2023-09-26T02:53:06.874Z,21.08
2023-09-26T02:56:19.966Z,21.18
2023-09-26T02:59:41.144Z,21.23
2023-09-26T03:02:46.278Z,21.16
2023-09-26T03:05:54.921Z,21.02
2023-09-26T03:08:57.312Z,21.15
2023-09-26T03:11:59.913Z,21.21
2023-09-26T03:15:03.968Z,21.16
2023-09-26T03:18:07.124Z,21.08
2023-09-26T03:21:15.849Z,21.16
2023-09-26T03:24:18.795Z,21.14
2023-09-26T03:27:21.024Z,21.18
2023-09-26T03:41:13.970Z,21.17
2023-09-26T03:44:43.239Z,21.17
2023-09-26T03:52:20.460Z,20.93
2023-09-26T03:55:30.899Z,20.99
2023-09-26T04:18:13.524Z,20.89
2023-09-26T04:21:59.628Z,20.87
2023-09-26T04:32:58.874Z,20.77
2023-09-26T04:36:01.303Z,20.89
2023-09-26T04:39:03.643Z,20.78
2023-09-26T04:42:05.808Z,20.89
2023-09-26T04:45:08.791Z,20.93
2023-09-26T04:48:11.051Z,20.95
2023-09-26T04:51:16.458Z,20.84
2023-09-26T04:54:27.871Z,20.79
2023-09-26T04:57:30.112Z,20.93
2023-09-26T05:00:32.620Z,20.90
2023-09-26T05:03:35.127Z,20.94
2023-09-26T05:06:37.492Z,20.91
2023-09-26T05:09:39.692Z,20.90
2023-09-26T05:12:42.543Z,20.93
2023-09-26T05:15:44.774Z,20.98
2023-09-26T05:18:47.585Z,20.98
2023-09-26T05:21:55.451Z,20.89
2023-09-26T05:24:57.824Z,21.04
2023-09-26T05:28:00.577Z,20.96
2023-09-26T05:31:04.547Z,21.17
2023-09-26T05:34:06.880Z,21.19
2023-09-26T05:37:10.804Z,21.25
2023-09-26T05:40:13.269Z,21.33
2023-09-26T05:43:15.549Z,21.32
2023-09-26T05:46:17.911Z,21.33
2023-09-26T05:49:20.234Z,21.37
2023-09-26T05:52:22.456Z,21.29
2023-09-26T05:55:24.809Z,21.37
2023-09-26T05:58:28.286Z,21.55
2023-09-26T06:01:34.965Z,21.51
2023-09-26T06:04:47.424Z,21.55
2023-09-26T06:12:02.911Z,21.65
2023-09-26T06:15:37.681Z,21.62
2023-09-26T06:18:40.187Z,21.46
2023-09-26T06:21:43.682Z,21.84
2023-09-26T06:24:46.216Z,21.95
2023-09-26T06:27:48.518Z,21.93
2023-09-26T06:30:50.831Z,22.01
2023-09-26T06:33:53.593Z,22.02
2023-09-26T06:36:56.092Z,22.07
2023-09-26T06:40:01.551Z,22.11
2023-09-26T06:43:04.160Z,22.19
2023-09-26T06:46:09.483Z,22.21
2023-09-26T06:49:12.287Z,22.26
2023-09-26T06:52:15.698Z,22.36
2023-09-26T06:55:18.191Z,22.35
2023-09-26T06:58:20.649Z,22.39
2023-09-26T07:01:27.741Z,22.40
2023-09-26T07:04:36.776Z,22.45
2023-09-26T07:07:40.891Z,22.51
2023-09-26T07:10:45.357Z,22.54
2023-09-26T07:13:49.517Z,22.62
2023-09-26T07:16:53.746Z,22.60
2023-09-26T07:19:56.086Z,22.64
2023-09-26T07:22:58.602Z,22.70
2023-09-26T07:26:08.001Z,22.75
2023-09-26T07:29:10.257Z,22.78
2023-09-26T07:32:13.080Z,22.80
2023-09-26T07:35:15.361Z,22.83
2023-09-26T07:38:17.681Z,22.89
2023-09-26T07:41:20.112Z,22.98
2023-09-26T07:44:22.389Z,23.01
2023-09-26T07:47:25.349Z,23.06
2023-09-26T07:50:27.656Z,23.10
2023-09-26T07:53:30.097Z,23.12
2023-09-26T07:56:34.134Z,23.21
2023-09-26T07:59:44.184Z,23.18
2023-09-26T08:02:49.409Z,23.29
2023-09-26T08:06:06.249Z,23.33
2023-09-26T08:09:11.684Z,23.40
2023-09-26T08:12:15.351Z,23.41
2023-09-26T08:15:18.975Z,23.51
2023-09-26T08:18:22.456Z,23.48
2023-09-26T08:21:26.341Z,23.54
2023-09-26T08:24:28.570Z,23.56
2023-09-26T08:27:33.196Z,23.64
2023-09-26T08:30:35.648Z,23.69
2023-09-26T08:33:49.390Z,23.64
2023-09-26T08:36:52.581Z,23.79
2023-09-26T08:39:54.881Z,23.85
2023-09-26T08:42:58.954Z,23.93
2023-09-26T08:46:01.527Z,23.97
2023-09-26T08:49:04.565Z,24.00
2023-09-26T08:52:07.011Z,24.03
2023-09-26T08:55:15.794Z,24.11
2023-09-26T08:58:22.388Z,24.09
2023-09-26T09:01:46.302Z,24.17
2023-09-26T09:04:58.414Z,24.22
2023-09-26T09:08:02.597Z,24.22
2023-09-26T09:11:08.175Z,24.27
2023-09-26T09:14:10.724Z,24.23
2023-09-26T09:17:15.043Z,24.30
2023-09-26T09:20:30.041Z,24.34
2023-09-26T09:23:47.633Z,24.34
2023-09-26T09:26:52.486Z,24.39
2023-09-26T09:30:05.565Z,24.42
2023-09-26T09:33:09.307Z,24.43
2023-09-26T09:36:12.576Z,24.37
2023-09-26T09:39:16.628Z,24.47
2023-09-26T09:42:19.092Z,24.47
2023-09-26T09:45:21.426Z,24.56
2023-09-26T09:48:32.559Z,24.55
2023-09-26T09:51:38.034Z,24.62
2023-09-26T09:58:23.144Z,24.62
2023-09-26T10:01:34.576Z,24.41
2023-09-26T10:04:49.125Z,24.40
2023-09-26T10:08:04.571Z,24.64
2023-09-26T10:11:09.418Z,24.67
2023-09-26T10:14:17.159Z,24.66
2023-09-26T10:17:23.628Z,24.68
2023-09-26T10:20:49.052Z,24.73
2023-09-26T10:24:17.397Z,24.77
2023-09-26T10:30:45.943Z,24.83
2023-09-26T10:33:57.696Z,24.85
2023-09-26T10:37:00.789Z,24.85
2023-09-26T10:40:03.151Z,24.87
2023-09-26T10:46:11.273Z,24.96
2023-09-26T10:49:13.817Z,24.98
2023-09-26T10:52:17.411Z,25.02
2023-09-26T10:55:26.605Z,25.05
2023-09-26T10:58:38.462Z,25.10
2023-09-26T11:01:51.325Z,25.08
2023-09-26T11:04:59.964Z,25.18
2023-09-26T11:11:33.468Z,25.26
2023-09-26T11:14:35.852Z,25.22
2023-09-26T11:17:39.027Z,25.33
2023-09-26T11:20:50.836Z,25.33
2023-09-26T11:23:58.239Z,25.40
2023-09-26T11:27:05.794Z,25.43
2023-09-26T11:30:11.322Z,25.45
2023-09-26T11:33:13.751Z,25.54
2023-09-26T11:36:17.366Z,25.57
2023-09-26T11:39:24.381Z,25.64
2023-09-26T11:42:32.774Z,25.67
2023-09-26T11:45:35.866Z,25.74
2023-09-26T11:48:42.282Z,25.81
2023-09-26T11:51:53.966Z,25.88
2023-09-26T11:54:56.343Z,25.93
2023-09-26T11:58:00.393Z,25.94
2023-09-26T12:01:06.149Z,26.02
2023-09-26T12:04:11.568Z,26.09
2023-09-26T12:07:13.859Z,26.15
2023-09-26T12:10:16.232Z,26.20
2023-09-26T12:13:18.578Z,26.15
2023-09-26T12:16:21.528Z,26.30
2023-09-26T12:19:24.107Z,26.32
2023-09-26T12:22:30.153Z,26.42
2023-09-26T12:25:32.820Z,26.45
2023-09-26T12:28:36.734Z,26.56
2023-09-26T12:31:40.600Z,26.55
2023-09-26T12:34:43.102Z,26.59
2023-09-26T12:37:47.144Z,26.63
2023-09-26T12:40:49.852Z,26.69
2023-09-26T12:43:52.388Z,26.69
2023-09-26T12:46:56.237Z,26.74
2023-09-26T12:50:02.088Z,26.82
2023-09-26T12:53:04.643Z,26.84
2023-09-26T12:56:06.916Z,26.92
2023-09-26T12:59:09.597Z,26.99
2023-09-26T13:02:12.149Z,27.03
2023-09-26T13:05:14.819Z,27.09
2023-09-26T13:08:18.381Z,27.09
2023-09-26T13:11:20.815Z,27.19
2023-09-26T13:14:23.112Z,27.21
2023-09-26T13:17:25.364Z,27.21
2023-09-26T13:20:27.587Z,27.24
2023-09-26T13:23:29.821Z,27.31
2023-09-26T13:26:32.102Z,27.36
2023-09-26T13:29:35.048Z,27.38
2023-09-26T13:32:37.415Z,27.43
2023-09-26T13:35:39.770Z,27.46
2023-09-26T13:38:41.960Z,27.49
2023-09-26T13:41:50.487Z,27.53
2023-09-26T13:44:54.954Z,27.49
2023-09-26T13:47:57.794Z,27.51
2023-09-26T13:51:00.096Z,27.56
2023-09-26T13:54:02.332Z,27.63
2023-09-26T13:57:04.671Z,27.67
2023-09-26T14:00:09.106Z,27.60
2023-09-26T14:03:14.004Z,27.70
2023-09-26T14:09:32.336Z,27.80
2023-09-26T14:12:34.566Z,27.80
2023-09-26T14:15:37.435Z,27.85
2023-09-26T14:18:39.914Z,27.71
2023-09-26T14:21:42.138Z,27.84
2023-09-26T14:24:51.747Z,27.80
2023-09-26T14:28:05.109Z,27.82
2023-09-26T14:31:11.417Z,27.95
2023-09-26T14:34:13.767Z,27.95
2023-09-26T14:37:15.980Z,27.95
2023-09-26T14:40:20.019Z,27.96
2023-09-26T14:43:22.325Z,27.94
2023-09-26T14:46:24.536Z,27.94
2023-09-26T14:49:26.820Z,27.83
2023-09-26T14:52:29.045Z,27.89
2023-09-26T14:55:31.383Z,27.94
2023-09-26T14:58:33.587Z,27.91
2023-09-26T15:01:35.809Z,27.92
2023-09-26T15:04:38.046Z,27.94
2023-09-26T15:07:40.292Z,27.93
2023-09-26T15:10:42.683Z,27.90
2023-09-26T15:13:44.933Z,27.83
2023-09-26T15:16:47.190Z,27.84
2023-09-26T15:19:49.497Z,27.80
2023-09-26T15:22:51.806Z,27.80
2023-09-26T15:25:55.094Z,27.76
2023-09-26T15:28:59.688Z,27.72
2023-09-26T15:32:02.069Z,27.72
2023-09-26T15:35:06.006Z,27.70
2023-09-26T15:38:10.488Z,27.56
2023-09-26T15:41:20.829Z,27.54
2023-09-26T15:44:23.170Z,27.55
2023-09-26T15:47:25.432Z,27.49
2023-09-26T15:50:29.984Z,27.42
2023-09-26T15:53:32.201Z,27.42
2023-09-26T15:56:34.470Z,27.30
2023-09-26T15:59:36.710Z,27.22
2023-09-26T16:02:39.004Z,27.19
2023-09-26T16:05:41.275Z,27.11
2023-09-26T16:08:47.574Z,27.04
2023-09-26T16:11:50.694Z,26.85
2023-09-26T16:14:52.851Z,26.78
2023-09-26T16:17:59.611Z,26.69
2023-09-26T16:21:02.010Z,26.65
2023-09-26T16:24:05.818Z,26.59
2023-09-26T16:27:07.975Z,26.53
2023-09-26T16:30:10.816Z,26.40
2023-09-26T16:33:13.020Z,26.42
2023-09-26T16:36:23.276Z,26.30
2023-09-26T16:39:25.953Z,26.26
2023-09-26T16:42:31.021Z,26.09
2023-09-26T16:45:33.337Z,26.12
2023-09-26T16:48:35.579Z,26.15
2023-09-26T16:51:37.753Z,26.02
2023-09-26T16:54:40.053Z,26.03
2023-09-26T16:57:45.312Z,25.90
2023-09-26T17:00:49.742Z,25.92
2023-09-26T17:03:51.913Z,25.84
2023-09-26T17:06:57.234Z,25.76
2023-09-26T17:10:00.565Z,25.61
2023-09-26T17:13:04.174Z,25.54
2023-09-26T17:16:13.301Z,25.37
2023-09-26T17:19:16.529Z,25.26
2023-09-26T17:26:06.590Z,25.15
2023-09-26T17:32:32.210Z,25.00
2023-09-26T17:35:35.362Z,24.95
2023-09-26T17:38:43.750Z,24.88
2023-09-26T17:41:46.008Z,24.85
2023-09-26T17:44:48.267Z,24.84
2023-09-26T17:47:50.474Z,24.74
2023-09-26T17:50:52.658Z,24.69
2023-09-26T17:53:54.863Z,24.65
2023-09-26T17:56:57.137Z,24.63
2023-09-26T17:59:59.456Z,24.57
2023-09-26T18:03:02.337Z,24.50
2023-09-26T18:06:05.953Z,24.37
2023-09-26T18:09:08.293Z,24.34
2023-09-26T18:12:10.483Z,24.32
2023-09-26T18:15:12.709Z,24.30
2023-09-26T18:18:15.055Z,24.21
2023-09-26T18:21:17.373Z,24.15
2023-09-26T18:24:19.663Z,24.07
2023-09-26T18:27:22.792Z,24.15
2023-09-26T18:30:26.534Z,24.06
2023-09-26T18:33:30.037Z,24.00
2023-09-26T18:36:32.250Z,23.98
2023-09-26T18:39:34.414Z,23.95
2023-09-26T18:42:38.224Z,23.80
2023-09-26T18:45:42.071Z,23.89
2023-09-26T18:48:44.580Z,23.82
2023-09-26T18:51:46.810Z,23.77
2023-09-26T18:54:49.228Z,23.79
2023-09-26T18:57:51.427Z,23.69
2023-09-26T19:00:53.715Z,23.71
2023-09-26T19:03:56.053Z,23.69
2023-09-26T19:06:58.599Z,23.71
2023-09-26T19:10:01.020Z,23.63
2023-09-26T19:13:03.925Z,23.55
2023-09-26T19:16:06.363Z,23.53
2023-09-26T19:19:08.882Z,23.44
2023-09-26T19:22:12.369Z,23.31
2023-09-26T19:25:14.640Z,23.32
2023-09-26T19:28:16.863Z,23.31
2023-09-26T19:31:19.182Z,23.27
2023-09-26T19:34:21.563Z,23.23
2023-09-26T19:37:23.756Z,23.17
2023-09-26T19:40:25.955Z,23.13
2023-09-26T19:43:30.624Z,23.14
2023-09-26T19:46:32.849Z,23.14
2023-09-26T19:49:35.101Z,23.09
2023-09-26T19:52:40.868Z,23.07
2023-09-26T19:55:50.561Z,23.00
2023-09-26T19:58:53.518Z,22.98
2023-09-26T20:01:56.261Z,22.93
2023-09-26T20:04:58.501Z,22.92
2023-09-26T20:08:04.118Z,22.93
2023-09-26T20:11:06.474Z,22.87
2023-09-26T20:14:08.674Z,22.84
2023-09-26T20:17:10.948Z,22.68
2023-09-26T20:20:13.264Z,22.69
2023-09-26T20:23:15.484Z,22.67
2023-09-26T20:26:17.798Z,22.63
2023-09-26T20:29:20.058Z,22.58
2023-09-26T20:32:25.416Z,22.55
2023-09-26T20:35:27.741Z,22.58
2023-09-26T20:38:30.000Z,22.62
2023-09-26T20:41:33.090Z,22.54
2023-09-26T20:44:35.428Z,22.51
2023-09-26T20:47:37.670Z,22.43
2023-09-26T20:50:39.881Z,22.48
2023-09-26T20:53:42.066Z,22.52
2023-09-26T20:56:44.229Z,22.46
2023-09-26T20:59:46.429Z,22.43
2023-09-26T21:02:48.884Z,22.34
2023-09-26T21:05:51.189Z,22.27
2023-09-26T21:08:55.836Z,22.24
2023-09-26T21:11:58.045Z,22.19
2023-09-26T21:15:00.285Z,22.18
2023-09-26T21:18:02.782Z,22.23
2023-09-26T21:21:05.058Z,22.15
2023-09-26T21:24:07.478Z,22.14
2023-09-26T21:27:09.769Z,22.10
2023-09-26T21:30:12.578Z,22.08
2023-09-26T21:33:14.893Z,22.10
2023-09-26T21:36:18.237Z,22.05
2023-09-26T21:39:23.809Z,22.06
2023-09-26T21:42:26.068Z,22.08
2023-09-26T21:45:28.535Z,22.00
2023-09-26T21:48:30.984Z,22.07
2023-09-26T21:51:33.329Z,22.03
2023-09-26T21:54:35.601Z,22.03
2023-09-26T21:57:37.873Z,21.99
2023-09-26T22:00:40.223Z,22.03
2023-09-26T22:03:44.494Z,21.90
2023-09-26T22:06:46.927Z,21.99
2023-09-26T22:09:49.143Z,21.94
2023-09-26T22:12:51.384Z,21.92
2023-09-26T22:15:53.596Z,21.96
2023-09-26T22:18:55.917Z,21.86
2023-09-26T22:21:58.170Z,21.86
2023-09-26T22:25:00.568Z,21.90
2023-09-26T22:28:03.193Z,21.91
2023-09-26T22:31:05.413Z,21.89
2023-09-26T22:34:08.140Z,21.84
2023-09-26T22:37:10.306Z,21.78
2023-09-26T22:40:12.709Z,21.85
2023-09-26T22:55:22.052Z,21.82
2023-09-26T23:02:16.603Z,21.75
2023-09-26T23:10:08.037Z,21.78
2023-09-26T23:34:57.887Z,21.66
2023-09-26T23:50:17.566Z,21.80
